Terminal Aerodrome Forecast
Issued by NWS

Home | Current Version | Previous Version | Text Only | Print | Product List | Glossary On
Versions: 1 2 3 4 5 6 7 8 9 10 11 12 13 14 15
000
FTUS43 KMPX 291120
TAFRWF
TAF
KRWF 291120Z 2912/3012 09006KT P6SM BKN200
     FM291500 11008KT P6SM OVC150
     FM300000 10008KT P6SM OVC080
     FM300300 10007KT P6SM OVC040=

USA.gov is the U.S. government's official web portal to all federal, state and local government web resources and services.